ADDS TAF Data INFO
IDs: Format: Raw Decoded Include METARs

Data at: 0532 UTC 20 Sep 2017

TAF for:KCYS (Cheyenne Rgnl, WY, US) issued at 0520 UTC 20 Sep 2017
Text:KCYS 200520Z 2006/2106 31020G32KT P6SM SCT100
Forecast period:0600 to 0800 UTC 20 September 2017
Forecast type:FROM: standard forecast or significant change
Winds:from the NW (310 degrees) at 23 MPH (20 knots; 10.3 m/s) gusting to 37 MPH (32 knots; 16.5 m/s)
Visibility:6 or more sm (10+ km)
Ceiling:at least 12,000 feet AGL
Clouds: scattered clouds at 10000 feet AGL
Text:FM200800 31016G23KT P6SM SCT120
Forecast period:0800 to 1500 UTC 20 September 2017
Forecast type:FROM: standard forecast or significant change
Winds:from the NW (310 degrees) at 18 MPH (16 knots; 8.2 m/s) gusting to 26 MPH (23 knots; 11.8 m/s)
Visibility:6 or more sm (10+ km)
Ceiling:at least 12,000 feet AGL
Clouds: scattered clouds at 12000 feet AGL
Text:FM201500 21016G27KT P6SM SCT150
Forecast period:1500 UTC 20 September 2017 to 0600 UTC 21 September 2017
Forecast type:FROM: standard forecast or significant change
Winds:from the SSW (210 degrees) at 18 MPH (16 knots; 8.2 m/s) gusting to 31 MPH (27 knots; 13.9 m/s)
Visibility:6 or more sm (10+ km)
Ceiling:at least 12,000 feet AGL
Clouds: scattered clouds at 15000 feet AGL